Time;durP1;ratioP1;P1;durP2;ratioP2;P2;SDS_P1;SDS_P2;PMS_P1;PMS_P2;Temp;Humidity;BMP_temperature;BMP_pressure;BME280_temperature;BME280_humidity;BME280_pressure;Samples;Min_cycle;Max_cycle;Signal;HPM_P1;HPM_P2
2022/06/02 00:00:24;;;;;;;2.78;1.58;;;;;;;;;;8304627;28;20076;-56
2022/06/02 00:04:27;;;;;;;1.65;1.55;;;;;;;;;;8307909;28;20026;-57
2022/06/02 00:08:30;;;;;;;3.72;1.50;;;;;;;;;;8305522;28;20025;-57
2022/06/02 00:12:41;;;;;;;1.95;1.40;;;;;;;;;;8306040;28;20033;-57
2022/06/02 00:16:59;;;;;;;2.00;1.50;;;;;;;;;;8306833;28;20122;-57
2022/06/02 00:21:09;;;;;;;2.33;1.38;;;;;;;;;;8303566;28;20024;-57
2022/06/02 00:25:21;;;;;;;2.10;1.55;;;;;;;;;;8306893;28;20032;-57
2022/06/02 00:29:30;;;;;;;1.42;1.27;;;;;;;;;;8305354;28;20331;-57
2022/06/02 00:33:49;;;;;;;2.28;1.40;;;;;;;;;;8308656;28;20158;-57
2022/06/02 00:38:08;;;;;;;1.92;1.23;;;;;;;;;;8305799;28;20464;-57
2022/06/02 00:42:26;;;;;;;2.38;1.40;;;;;;;;;;8305522;28;20021;-56
2022/06/02 00:46:32;;;;;;;1.58;1.48;;;;;;;;;;8304990;28;20045;-57
2022/06/02 00:50:33;;;;;;;1.92;1.70;;;;;;;;;;8307277;28;20096;-59
2022/06/02 00:59:11;;;;;;;2.08;1.48;;;;;;;;;;8304283;28;20316;-57
2022/06/02 01:03:27;;;;;;;3.07;1.77;;;;;;;;;;8302604;28;20045;-57
2022/06/02 01:07:36;;;;;;;2.70;1.50;;;;;;;;;;8306856;28;20025;-57
2022/06/02 01:11:36;;;;;;;1.70;1.60;;;;;;;;;;8321458;28;20034;-57
2022/06/02 01:15:46;;;;;;;2.25;1.40;;;;;;;;;;8304632;28;21201;-59
2022/06/02 01:19:56;;;;;;;3.78;1.70;;;;;;;;;;8305363;28;21091;-57
2022/06/02 01:24:06;;;;;;;4.68;1.70;;;;;;;;;;8301674;28;20090;-57
2022/06/02 01:28:17;;;;;;;1.75;1.55;;;;;;;;;;8308385;28;20059;-58
2022/06/02 01:32:20;;;;;;;2.25;1.50;;;;;;;;;;8303822;28;20068;-56
2022/06/02 01:36:25;;;;;;;1.70;1.60;;;;;;;;;;8304406;28;20897;-64
2022/06/02 01:40:32;;;;;;;3.20;1.70;;;;;;;;;;8305524;28;20052;-57
2022/06/02 01:44:42;;;;;;;1.75;1.60;;;;;;;;;;8300806;28;20040;-57
2022/06/02 01:49:11;;;;;;;2.30;1.50;;;;;;;;;;8306824;28;21107;-57
2022/06/02 01:53:36;;;;;;;3.70;1.60;;;;;;;;;;8296244;28;20361;-57
2022/06/02 01:57:45;;;;;;;2.45;1.60;;;;;;;;;;8309320;28;20086;-59
2022/06/02 02:02:09;;;;;;;3.17;1.67;;;;;;;;;;8304042;28;20040;-59
2022/06/02 02:06:18;;;;;;;2.45;1.70;;;;;;;;;;8302645;28;20037;-57
2022/06/02 02:10:21;;;;;;;1.95;1.67;;;;;;;;;;8311905;28;20029;-57
2022/06/02 02:14:21;;;;;;;2.58;1.58;;;;;;;;;;8310530;28;20064;-57
2022/06/02 02:18:35;;;;;;;2.28;1.75;;;;;;;;;;8308328;28;20041;-58
2022/06/02 02:22:54;;;;;;;4.38;2.00;;;;;;;;;;8312392;28;20533;-57
2022/06/02 02:27:04;;;;;;;2.53;1.50;;;;;;;;;;8313307;28;20557;-57
2022/06/02 02:31:13;;;;;;;3.28;1.70;;;;;;;;;;8308176;28;20041;-57
2022/06/02 02:35:33;;;;;;;1.63;1.52;;;;;;;;;;8311451;28;20631;-56
2022/06/02 02:39:34;;;;;;;3.40;1.80;;;;;;;;;;8307585;28;20044;-57
2022/06/02 02:43:40;;;;;;;2.30;2.10;;;;;;;;;;8311030;28;20029;-57
2022/06/02 02:47:43;;;;;;;2.33;1.88;;;;;;;;;;8307975;28;20513;-57
2022/06/02 02:51:47;;;;;;;2.63;2.07;;;;;;;;;;8308439;28;20390;-57
2022/06/02 02:55:53;;;;;;;4.18;2.28;;;;;;;;;;8310624;28;20036;-57
2022/06/02 03:00:26;;;;;;;4.07;2.40;;;;;;;;;;8306585;28;20044;-57
2022/06/02 03:04:38;;;;;;;3.08;2.33;;;;;;;;;;8287009;28;20540;-57
2022/06/02 03:08:44;;;;;;;3.40;1.83;;;;;;;;;;8307764;28;20990;-57
2022/06/02 03:12:59;;;;;;;2.40;2.20;;;;;;;;;;8311251;28;20116;-58
2022/06/02 03:17:12;;;;;;;2.67;2.38;;;;;;;;;;8306727;28;20048;-57
2022/06/02 03:21:15;;;;;;;4.68;2.08;;;;;;;;;;8308044;28;20551;-57
2022/06/02 03:25:24;;;;;;;3.40;2.10;;;;;;;;;;8307656;28;20029;-57
2022/06/02 03:29:44;;;;;;;2.95;1.80;;;;;;;;;;8307623;28;20535;-57
2022/06/02 03:33:44;;;;;;;1.75;1.60;;;;;;;;;;8308555;28;20037;-57
2022/06/02 03:38:03;;;;;;;2.38;1.95;;;;;;;;;;8308376;28;20955;-57
2022/06/02 03:42:04;;;;;;;4.80;2.40;;;;;;;;;;8306719;28;20860;-57
2022/06/02 03:46:04;;;;;;;2.45;1.88;;;;;;;;;;8308790;28;20099;-58
2022/06/02 03:50:04;;;;;;;2.53;2.03;;;;;;;;;;8308264;28;20573;-58
2022/06/02 03:54:07;;;;;;;2.67;2.28;;;;;;;;;;8309618;28;20143;-57
2022/06/02 03:58:16;;;;;;;2.88;1.83;;;;;;;;;;8306874;28;20025;-57
2022/06/02 04:02:25;;;;;;;3.60;1.90;;;;;;;;;;8308451;28;20403;-59
2022/06/02 04:06:40;;;;;;;2.00;1.88;;;;;;;;;;8307311;28;20036;-59
2022/06/02 04:10:59;;;;;;;2.72;2.00;;;;;;;;;;8304353;28;20025;-58
2022/06/02 04:14:59;;;;;;;2.50;1.95;;;;;;;;;;8307047;28;20509;-59
2022/06/02 04:20:34;;;;;;;2.47;2.28;;;;;;;;;;8307207;28;20091;-57
2022/06/02 04:23:48;;;;;;;2.50;2.05;;;;;;;;;;8303406;28;20075;-57
2022/06/02 04:27:52;;;;;;;2.50;2.30;;;;;;;;;;8305459;28;20025;-59
2022/06/02 04:32:08;;;;;;;5.43;2.10;;;;;;;;;;8305776;28;20037;-57
2022/06/02 04:36:11;;;;;;;4.63;2.25;;;;;;;;;;8304393;28;20504;-57
2022/06/02 04:40:42;;;;;;;4.38;2.42;;;;;;;;;;8311889;28;20679;-59
2022/06/02 04:44:47;;;;;;;5.13;2.55;;;;;;;;;;8306960;28;20119;-57
2022/06/02 04:48:47;;;;;;;2.97;2.50;;;;;;;;;;8305820;28;20116;-57
2022/06/02 04:52:59;;;;;;;3.67;2.70;;;;;;;;;;8304943;28;20379;-57
2022/06/02 04:57:02;;;;;;;4.60;2.40;;;;;;;;;;8303161;28;20021;-57
2022/06/02 05:01:18;;;;;;;2.87;2.30;;;;;;;;;;8304532;28;20165;-59
2022/06/02 05:05:26;;;;;;;5.88;2.85;;;;;;;;;;8304488;28;20488;-57
2022/06/02 05:09:26;;;;;;;3.05;2.53;;;;;;;;;;8305259;28;20024;-58
2022/06/02 05:13:44;;;;;;;2.58;2.22;;;;;;;;;;8305650;28;20036;-57
2022/06/02 05:17:57;;;;;;;2.42;2.20;;;;;;;;;;8306286;28;20050;-58
2022/06/02 05:22:03;;;;;;;5.53;2.65;;;;;;;;;;8305527;28;20628;-58
2022/06/02 05:26:29;;;;;;;3.85;2.75;;;;;;;;;;8304525;28;20471;-58
2022/06/02 05:30:48;;;;;;;4.57;2.40;;;;;;;;;;8305330;28;20038;-59
2022/06/02 05:35:08;;;;;;;2.45;2.25;;;;;;;;;;8303961;28;20894;-59
2022/06/02 05:39:26;;;;;;;4.63;2.20;;;;;;;;;;8306289;28;20024;-59
2022/06/02 05:43:45;;;;;;;2.80;2.30;;;;;;;;;;8305980;28;20144;-58
2022/06/02 05:48:24;;;;;;;4.22;2.10;;;;;;;;;;8305316;28;20494;-58
2022/06/02 05:52:30;;;;;;;2.70;2.17;;;;;;;;;;8254316;28;20140;-58
2022/06/02 05:57:08;;;;;;;4.13;2.28;;;;;;;;;;8279213;28;20084;-59
2022/06/02 06:01:28;;;;;;;2.35;2.10;;;;;;;;;;8299344;28;20041;-58
2022/06/02 06:05:36;;;;;;;2.85;2.20;;;;;;;;;;8303863;28;20226;-58
2022/06/02 06:09:42;;;;;;;2.58;2.38;;;;;;;;;;8309872;28;20388;-58
2022/06/02 06:13:57;;;;;;;3.30;2.50;;;;;;;;;;8307506;28;20033;-58
2022/06/02 06:17:57;;;;;;;3.60;2.67;;;;;;;;;;8306311;28;20041;-58
2022/06/02 06:22:23;;;;;;;3.00;2.63;;;;;;;;;;8307671;28;20335;-58
2022/06/02 06:26:29;;;;;;;4.93;2.88;;;;;;;;;;8311321;28;20482;-58
2022/06/02 06:30:52;;;;;;;2.60;2.40;;;;;;;;;;8312366;28;20033;-59
2022/06/02 06:34:56;;;;;;;2.83;2.42;;;;;;;;;;8311910;28;20419;-59
2022/06/02 06:39:02;;;;;;;4.57;3.20;;;;;;;;;;8310131;28;20119;-58
2022/06/02 06:43:18;;;;;;;2.58;2.35;;;;;;;;;;8309632;28;20027;-59
2022/06/02 06:47:30;;;;;;;3.88;2.65;;;;;;;;;;8307582;28;20078;-59
2022/06/02 06:51:49;;;;;;;4.20;3.13;;;;;;;;;;8307448;28;20582;-58
2022/06/02 06:55:52;;;;;;;3.47;3.17;;;;;;;;;;8309765;28;20688;-58
2022/06/02 07:00:03;;;;;;;4.43;4.03;;;;;;;;;;8311423;28;20132;-58
2022/06/02 07:04:16;;;;;;;5.03;4.50;;;;;;;;;;8309132;28;20060;-59
2022/06/02 07:08:28;;;;;;;6.43;4.80;;;;;;;;;;8311858;28;20112;-58
2022/06/02 07:13:01;;;;;;;5.18;3.80;;;;;;;;;;8307584;28;20066;-58
2022/06/02 07:17:07;;;;;;;5.15;3.88;;;;;;;;;;8325939;28;20037;-59
2022/06/02 07:21:15;;;;;;;5.25;4.18;;;;;;;;;;8311907;28;20039;-58
2022/06/02 07:25:26;;;;;;;5.40;3.72;;;;;;;;;;8311013;28;20346;-59
2022/06/02 07:29:44;;;;;;;4.18;3.80;;;;;;;;;;8307888;28;20504;-58
2022/06/02 07:33:51;;;;;;;4.57;3.50;;;;;;;;;;8309787;28;20100;-59
2022/06/02 07:38:11;;;;;;;9.43;4.15;;;;;;;;;;8306269;28;20056;-59
2022/06/02 07:42:14;;;;;;;5.78;5.22;;;;;;;;;;8307011;28;20017;-59
2022/06/02 07:46:20;;;;;;;6.25;4.43;;;;;;;;;;8304733;28;20033;-58
2022/06/02 07:50:20;;;;;;;4.40;3.80;;;;;;;;;;8307122;28;20828;-58
2022/06/02 07:54:27;;;;;;;4.90;4.47;;;;;;;;;;8309828;28;20057;-58
2022/06/02 07:58:37;;;;;;;4.13;3.40;;;;;;;;;;8308750;28;20037;-58
2022/06/02 08:03:02;;;;;;;4.70;3.85;;;;;;;;;;8305740;28;20124;-60
2022/06/02 08:07:11;;;;;;;5.38;4.05;;;;;;;;;;8303733;28;20060;-59
2022/06/02 08:11:29;;;;;;;4.05;3.70;;;;;;;;;;8305311;28;20498;-58
2022/06/02 08:15:37;;;;;;;4.40;4.00;;;;;;;;;;8305465;28;20510;-59
2022/06/02 08:19:44;;;;;;;4.95;3.70;;;;;;;;;;8303173;28;20024;-58
2022/06/02 08:23:44;;;;;;;4.22;3.83;;;;;;;;;;8303977;28;20647;-58
2022/06/02 08:28:00;;;;;;;5.90;3.80;;;;;;;;;;8302479;28;20028;-59
2022/06/02 08:32:08;;;;;;;4.40;2.97;;;;;;;;;;8301915;28;20037;-58
2022/06/02 08:36:22;;;;;;;6.45;3.40;;;;;;;;;;8302932;28;20229;-59
2022/06/02 08:40:43;;;;;;;6.97;3.95;;;;;;;;;;8301350;28;20029;-59
2022/06/02 08:44:46;;;;;;;3.10;2.80;;;;;;;;;;8304002;28;20036;-58
2022/06/02 08:48:47;;;;;;;3.75;2.63;;;;;;;;;;8303259;28;20572;-59
2022/06/02 08:52:56;;;;;;;4.55;3.75;;;;;;;;;;8301437;28;20036;-58
2022/06/02 08:57:01;;;;;;;3.88;3.22;;;;;;;;;;8301815;28;20035;-59
2022/06/02 09:01:08;;;;;;;3.85;3.00;;;;;;;;;;8303130;28;20034;-58
2022/06/02 09:05:14;;;;;;;3.42;3.13;;;;;;;;;;8302102;28;20116;-58
2022/06/02 09:09:23;;;;;;;4.93;2.40;;;;;;;;;;8300828;28;20591;-58
2022/06/02 09:13:38;;;;;;;4.13;2.40;;;;;;;;;;8302932;28;20036;-59
2022/06/02 09:17:57;;;;;;;3.20;2.90;;;;;;;;;;8306040;28;20041;-59
2022/06/02 09:22:15;;;;;;;3.72;2.90;;;;;;;;;;8307500;28;20025;-58
2022/06/02 09:26:34;;;;;;;3.63;2.50;;;;;;;;;;8315682;28;20116;-58
2022/06/02 09:30:34;;;;;;;4.10;2.55;;;;;;;;;;8307038;28;20037;-59
2022/06/02 09:34:52;;;;;;;3.30;2.30;;;;;;;;;;8302505;28;20599;-58
2022/06/02 09:39:11;;;;;;;3.00;2.80;;;;;;;;;;8305110;28;20768;-59
2022/06/02 09:43:11;;;;;;;4.13;2.42;;;;;;;;;;8305064;28;20017;-58
2022/06/02 09:47:27;;;;;;;8.25;2.67;;;;;;;;;;8305965;28;20476;-58
2022/06/02 09:51:43;;;;;;;3.05;2.60;;;;;;;;;;8305333;28;20076;-58
2022/06/02 09:55:55;;;;;;;3.28;2.58;;;;;;;;;;8305633;28;20256;-58
2022/06/02 10:00:02;;;;;;;3.03;2.60;;;;;;;;;;8306494;28;20070;-59
2022/06/02 10:04:25;;;;;;;3.00;2.70;;;;;;;;;;8303661;28;20087;-58
2022/06/02 10:08:41;;;;;;;2.28;2.05;;;;;;;;;;8304631;28;20063;-58
2022/06/02 10:13:14;;;;;;;3.28;2.30;;;;;;;;;;8305776;28;20095;-59
2022/06/02 10:17:13;;;;;;;2.25;2.05;;;;;;;;;;8302771;28;20429;-59
2022/06/02 10:21:32;;;;;;;2.95;2.65;;;;;;;;;;8302169;28;20025;-58
2022/06/02 10:25:38;;;;;;;5.25;2.13;;;;;;;;;;8301799;28;20121;-59
2022/06/02 10:29:57;;;;;;;2.67;1.83;;;;;;;;;;8298815;28;20698;-59
2022/06/02 10:34:16;;;;;;;3.45;1.83;;;;;;;;;;8303317;28;20462;-60
2022/06/02 10:38:23;;;;;;;2.00;1.77;;;;;;;;;;8303643;28;20774;-59
2022/06/02 10:42:42;;;;;;;3.47;1.77;;;;;;;;;;8303409;28;20461;-59
2022/06/02 10:46:52;;;;;;;4.28;2.45;;;;;;;;;;8304794;28;20041;-60
2022/06/02 10:51:11;;;;;;;2.85;2.00;;;;;;;;;;8304242;28;20030;-59
2022/06/02 10:55:29;;;;;;;3.00;1.80;;;;;;;;;;8305976;28;20013;-59
2022/06/02 10:59:48;;;;;;;2.58;2.08;;;;;;;;;;8302716;28;20436;-59
2022/06/02 11:03:58;;;;;;;2.33;2.10;;;;;;;;;;8303015;28;20036;-59
2022/06/02 11:08:18;;;;;;;1.75;1.55;;;;;;;;;;8302699;28;20304;-59
2022/06/02 11:12:37;;;;;;;2.65;2.03;;;;;;;;;;8304183;28;20742;-60
2022/06/02 11:16:59;;;;;;;3.63;1.70;;;;;;;;;;8306846;28;20136;-59
2022/06/02 11:21:18;;;;;;;1.73;1.60;;;;;;;;;;8306715;28;20060;-59
2022/06/02 11:25:18;;;;;;;2.80;1.77;;;;;;;;;;8306656;28;20031;-59
2022/06/02 11:29:37;;;;;;;3.47;1.85;;;;;;;;;;8308704;28;20184;-60
2022/06/02 11:33:37;;;;;;;1.90;1.80;;;;;;;;;;8306981;28;20029;-60
2022/06/02 11:37:53;;;;;;;3.38;1.80;;;;;;;;;;8307926;28;20663;-60
2022/06/02 11:42:05;;;;;;;1.88;1.55;;;;;;;;;;8305878;28;20025;-59
2022/06/02 11:46:05;;;;;;;5.97;1.80;;;;;;;;;;8304514;28;20091;-59
2022/06/02 11:50:24;;;;;;;2.27;1.73;;;;;;;;;;8304600;28;20263;-59
2022/06/02 11:54:30;;;;;;;2.20;2.00;;;;;;;;;;8308186;28;20036;-59
2022/06/02 11:58:36;;;;;;;2.22;1.40;;;;;;;;;;8308777;28;20036;-59
2022/06/02 12:02:55;;;;;;;1.58;1.30;;;;;;;;;;8310147;28;20041;-59
2022/06/02 12:07:14;;;;;;;2.10;1.65;;;;;;;;;;8307355;28;20026;-59
2022/06/02 12:11:14;;;;;;;1.98;1.33;;;;;;;;;;8309006;28;20031;-59
2022/06/02 12:15:23;;;;;;;1.75;1.50;;;;;;;;;;8309006;28;20025;-60
2022/06/02 12:19:42;;;;;;;2.58;1.35;;;;;;;;;;8309296;28;20075;-59
2022/06/02 12:24:07;;;;;;;1.38;1.27;;;;;;;;;;8306172;28;20021;-59
2022/06/02 12:28:08;;;;;;;1.58;1.30;;;;;;;;;;8308458;28;20032;-60
2022/06/02 12:32:08;;;;;;;1.27;1.00;;;;;;;;;;8307065;28;20032;-60
2022/06/02 12:36:20;;;;;;;2.08;1.48;;;;;;;;;;8307060;28;20370;-59
2022/06/02 12:40:41;;;;;;;2.17;1.35;;;;;;;;;;8305923;28;20028;-59
2022/06/02 12:44:54;;;;;;;2.30;1.35;;;;;;;;;;8307966;28;20106;-60
2022/06/02 12:49:09;;;;;;;1.20;1.10;;;;;;;;;;8306166;28;20068;-60
2022/06/02 12:53:15;;;;;;;1.02;0.90;;;;;;;;;;8304148;28;20227;-59
2022/06/02 12:57:16;;;;;;;3.65;1.20;;;;;;;;;;8306682;28;20034;-60
2022/06/02 13:01:54;;;;;;;1.00;1.00;;;;;;;;;;8304095;28;20509;-61
2022/06/02 13:05:57;;;;;;;0.93;0.90;;;;;;;;;;8290201;28;20049;-60
2022/06/02 13:10:04;;;;;;;5.40;1.10;;;;;;;;;;8296474;28;20083;-61
2022/06/02 13:14:14;;;;;;;3.10;1.10;;;;;;;;;;8306151;28;20490;-61
2022/06/02 13:18:33;;;;;;;2.10;1.17;;;;;;;;;;8294204;28;20045;-60
2022/06/02 13:22:42;;;;;;;1.58;1.27;;;;;;;;;;8306195;28;21052;-60
2022/06/02 13:26:42;;;;;;;2.03;1.30;;;;;;;;;;8303520;28;20514;-60
2022/06/02 13:30:42;;;;;;;1.30;1.08;;;;;;;;;;8299329;28;20130;-60
2022/06/02 13:35:02;;;;;;;1.98;1.20;;;;;;;;;;8305724;28;20614;-62
2022/06/02 13:39:13;;;;;;;1.33;0.93;;;;;;;;;;8302067;28;20789;-61
2022/06/02 13:43:32;;;;;;;3.45;1.00;;;;;;;;;;8302781;28;20033;-61
2022/06/02 13:47:55;;;;;;;1.17;0.90;;;;;;;;;;8305032;28;20094;-61
2022/06/02 13:51:55;;;;;;;1.60;0.80;;;;;;;;;;8289591;28;20119;-61
2022/06/02 14:00:21;;;;;;;1.95;0.90;;;;;;;;;;8303403;28;20406;-61
2022/06/02 14:04:32;;;;;;;1.65;1.00;;;;;;;;;;8304042;28;20674;-61
2022/06/02 14:08:32;;;;;;;1.55;0.90;;;;;;;;;;8302380;28;20844;-61
2022/06/02 14:12:35;;;;;;;3.05;1.05;;;;;;;;;;8303022;28;20025;-61
2022/06/02 14:16:51;;;;;;;1.40;1.05;;;;;;;;;;8305459;28;20084;-61
2022/06/02 14:21:14;;;;;;;1.48;0.82;;;;;;;;;;8303986;28;20041;-65
2022/06/02 14:25:27;;;;;;;0.80;0.80;;;;;;;;;;8305772;28;20468;-61
2022/06/02 14:29:36;;;;;;;1.48;1.00;;;;;;;;;;8308273;28;20036;-61
2022/06/02 14:33:37;;;;;;;2.92;0.93;;;;;;;;;;8306797;28;20096;-61
2022/06/02 14:37:57;;;;;;;1.65;0.82;;;;;;;;;;8307870;28;20472;-61
2022/06/02 14:42:16;;;;;;;2.25;0.88;;;;;;;;;;8304544;28;20024;-60
2022/06/02 14:46:23;;;;;;;1.17;0.90;;;;;;;;;;8306761;28;20048;-61
2022/06/02 14:50:30;;;;;;;1.63;0.98;;;;;;;;;;8306329;28;20178;-61
2022/06/02 14:54:30;;;;;;;1.85;0.90;;;;;;;;;;8307029;28;20033;-61
2022/06/02 14:58:34;;;;;;;3.17;0.90;;;;;;;;;;8306439;28;20095;-61
2022/06/02 15:02:43;;;;;;;2.33;1.00;;;;;;;;;;8306949;28;20098;-61
2022/06/02 15:07:03;;;;;;;0.80;0.80;;;;;;;;;;8305040;28;20045;-61
2022/06/02 15:11:07;;;;;;;1.20;0.77;;;;;;;;;;8311818;28;20028;-61
2022/06/02 15:15:11;;;;;;;1.65;0.88;;;;;;;;;;8305717;28;20086;-61
2022/06/02 15:19:11;;;;;;;1.08;0.70;;;;;;;;;;8304621;28;20021;-61
2022/06/02 15:23:14;;;;;;;0.75;0.75;;;;;;;;;;8306206;28;20195;-61
2022/06/02 15:27:27;;;;;;;4.35;0.80;;;;;;;;;;8307725;28;20021;-61
2022/06/02 15:31:31;;;;;;;0.82;0.80;;;;;;;;;;8301955;28;20037;-61
2022/06/02 15:35:54;;;;;;;1.77;0.80;;;;;;;;;;8305226;28;20018;-61
2022/06/02 15:40:16;;;;;;;1.08;0.77;;;;;;;;;;8293854;28;20524;-61
2022/06/02 15:44:16;;;;;;;2.17;1.00;;;;;;;;;;8305095;28;20054;-61
2022/06/02 15:48:35;;;;;;;1.35;0.80;;;;;;;;;;8305023;28;20856;-61
2022/06/02 15:52:54;;;;;;;1.63;0.80;;;;;;;;;;8305964;28;20033;-61
2022/06/02 15:57:07;;;;;;;1.20;0.95;;;;;;;;;;8305577;28;20025;-61
2022/06/02 16:01:26;;;;;;;1.13;0.90;;;;;;;;;;8303262;28;20045;-61
2022/06/02 16:05:29;;;;;;;4.57;0.75;;;;;;;;;;8303968;28;20030;-61
2022/06/02 16:14:14;;;;;;;0.80;0.80;;;;;;;;;;8306876;28;20040;-61
2022/06/02 16:18:33;;;;;;;0.80;0.70;;;;;;;;;;8303108;28;20700;-62
2022/06/02 16:22:33;;;;;;;0.85;0.70;;;;;;;;;;8302388;28;20028;-61
2022/06/02 16:26:49;;;;;;;2.10;0.90;;;;;;;;;;8305333;28;20104;-60
2022/06/02 16:30:49;;;;;;;1.08;0.98;;;;;;;;;;8301637;28;20038;-62
2022/06/02 16:34:54;;;;;;;1.10;0.80;;;;;;;;;;8304296;28;20883;-61
2022/06/02 16:39:16;;;;;;;4.45;0.90;;;;;;;;;;8305335;28;20036;-61
2022/06/02 16:43:19;;;;;;;2.70;0.63;;;;;;;;;;8303156;28;20029;-61
2022/06/02 16:47:26;;;;;;;1.70;0.80;;;;;;;;;;8304733;28;20441;-60
2022/06/02 16:51:29;;;;;;;0.70;0.70;;;;;;;;;;8309079;28;20040;-60
2022/06/02 16:55:29;;;;;;;;;;;;;;;;;;8308342;28;20029;-60
2022/06/02 16:59:42;;;;;;;0.80;0.75;;;;;;;;;;8304844;28;20027;-61
2022/06/02 17:04:02;;;;;;;1.70;0.90;;;;;;;;;;8307410;28;20038;-60
2022/06/02 17:08:09;;;;;;;0.93;0.80;;;;;;;;;;8306057;28;20727;-61
2022/06/02 17:12:14;;;;;;;2.25;0.77;;;;;;;;;;8306011;28;20036;-61
2022/06/02 17:16:17;;;;;;;2.92;0.80;;;;;;;;;;8305412;28;20071;-60
2022/06/02 17:20:23;;;;;;;2.90;0.77;;;;;;;;;;8305504;28;20552;-61
2022/06/02 17:24:31;;;;;;;4.72;0.80;;;;;;;;;;8306661;28;20075;-60
2022/06/02 17:28:54;;;;;;;0.85;0.80;;;;;;;;;;8307560;28;20025;-60
2022/06/02 17:33:19;;;;;;;1.10;0.70;;;;;;;;;;8308439;28;20033;-61
2022/06/02 17:37:39;;;;;;;0.98;0.80;;;;;;;;;;8311109;28;20914;-61
2022/06/02 17:41:39;;;;;;;2.92;0.90;;;;;;;;;;8309728;28;20254;-61
2022/06/02 17:45:45;;;;;;;0.80;0.80;;;;;;;;;;8313263;28;20034;-61
2022/06/02 17:50:11;;;;;;;2.35;0.90;;;;;;;;;;8312108;28;20532;-61
2022/06/02 17:54:30;;;;;;;1.00;0.90;;;;;;;;;;8311256;28;20028;-61
2022/06/02 17:58:43;;;;;;;0.70;0.70;;;;;;;;;;8309858;28;20029;-60
2022/06/02 18:02:53;;;;;;;0.88;0.88;;;;;;;;;;8306966;28;20041;-60
2022/06/02 18:06:54;;;;;;;0.82;0.70;;;;;;;;;;8308964;28;20113;-61
2022/06/02 18:11:13;;;;;;;1.00;1.00;;;;;;;;;;8309319;28;21022;-61
2022/06/02 18:15:32;;;;;;;2.80;0.90;;;;;;;;;;8309427;28;20033;-61
2022/06/02 18:19:54;;;;;;;0.80;0.80;;;;;;;;;;8311132;28;20143;-61
2022/06/02 18:24:01;;;;;;;1.85;0.80;;;;;;;;;;8311173;28;20140;-60
2022/06/02 18:28:01;;;;;;;1.48;0.90;;;;;;;;;;8307801;28;20033;-61
2022/06/02 18:32:05;;;;;;;1.10;0.70;;;;;;;;;;8307770;28;20037;-61
2022/06/02 18:36:08;;;;;;;1.25;0.80;;;;;;;;;;8308112;28;20130;-62
2022/06/02 18:40:22;;;;;;;4.20;0.77;;;;;;;;;;8308819;28;20029;-61
2022/06/02 18:44:25;;;;;;;2.20;0.80;;;;;;;;;;8307146;28;20061;-61
2022/06/02 18:48:31;;;;;;;0.80;0.80;;;;;;;;;;8304599;28;20135;-61
2022/06/02 18:52:50;;;;;;;2.20;0.82;;;;;;;;;;8308678;28;20033;-61
2022/06/02 18:56:54;;;;;;;0.73;0.73;;;;;;;;;;8306708;28;20746;-61
2022/06/02 19:01:12;;;;;;;1.05;0.77;;;;;;;;;;8306312;28;20517;-61
2022/06/02 19:05:34;;;;;;;2.47;0.80;;;;;;;;;;8304951;28;20021;-61
2022/06/02 19:14:05;;;;;;;0.95;0.77;;;;;;;;;;8306584;28;20103;-61
2022/06/02 19:18:12;;;;;;;1.75;0.80;;;;;;;;;;8307151;28;20037;-60
2022/06/02 19:22:33;;;;;;;0.73;0.60;;;;;;;;;;8306655;28;20031;-61
2022/06/02 19:26:37;;;;;;;1.92;0.90;;;;;;;;;;8307375;28;20021;-61
2022/06/02 19:31:01;;;;;;;4.22;0.80;;;;;;;;;;8304521;28;20036;-61
2022/06/02 19:35:04;;;;;;;0.82;0.73;;;;;;;;;;8305148;28;20113;-61
2022/06/02 19:39:10;;;;;;;2.85;0.80;;;;;;;;;;8305052;28;20115;-61
2022/06/02 19:43:18;;;;;;;1.40;0.80;;;;;;;;;;8303307;28;20816;-61
2022/06/02 19:47:29;;;;;;;0.70;0.70;;;;;;;;;;8307240;28;20040;-60
2022/06/02 19:51:30;;;;;;;0.80;0.80;;;;;;;;;;8303093;28;20129;-61
2022/06/02 19:55:44;;;;;;;0.85;0.70;;;;;;;;;;8306732;28;20045;-60
2022/06/02 19:59:54;;;;;;;0.80;0.70;;;;;;;;;;8307515;28;20029;-61
2022/06/02 20:04:03;;;;;;;1.90;0.90;;;;;;;;;;8303840;28;20041;-61
2022/06/02 20:08:07;;;;;;;1.85;0.80;;;;;;;;;;8314148;28;20487;-61
2022/06/02 20:12:20;;;;;;;0.70;0.70;;;;;;;;;;8305998;28;20455;-60
2022/06/02 20:16:26;;;;;;;1.27;0.63;;;;;;;;;;8302800;28;20029;-60
2022/06/02 20:20:36;;;;;;;1.48;0.70;;;;;;;;;;8301596;28;20111;-60
2022/06/02 20:24:46;;;;;;;0.70;0.70;;;;;;;;;;8302724;28;20056;-61
2022/06/02 20:28:46;;;;;;;0.60;0.60;;;;;;;;;;8298560;28;20494;-60
2022/06/02 20:33:06;;;;;;;0.70;0.70;;;;;;;;;;8300893;28;20068;-61
2022/06/02 20:37:16;;;;;;;0.80;0.70;;;;;;;;;;8291242;28;20106;-60
2022/06/02 20:41:37;;;;;;;2.00;0.90;;;;;;;;;;8300745;28;20033;-61
2022/06/02 20:46:03;;;;;;;4.00;0.80;;;;;;;;;;8302343;28;21268;-62
2022/06/02 20:50:06;;;;;;;2.22;1.00;;;;;;;;;;8302062;28;20132;-60
2022/06/02 20:54:24;;;;;;;0.80;0.80;;;;;;;;;;8302854;28;20028;-60
2022/06/02 20:58:35;;;;;;;0.82;0.80;;;;;;;;;;8302208;28;20068;-60
2022/06/02 21:02:46;;;;;;;3.35;0.90;;;;;;;;;;8303691;28;20045;-61
2022/06/02 21:06:51;;;;;;;1.60;0.80;;;;;;;;;;8300266;28;20136;-61
2022/06/02 21:10:55;;;;;;;0.77;0.60;;;;;;;;;;8303202;28;20750;-61
2022/06/02 21:15:04;;;;;;;2.92;0.70;;;;;;;;;;8304054;28;20112;-61
2022/06/02 21:23:34;;;;;;;1.38;0.70;;;;;;;;;;8398972;27;20425;-58
2022/06/02 21:27:36;;;;;;;1.70;0.80;;;;;;;;;;8379867;28;20028;-60
2022/06/02 21:31:38;;;;;;;0.85;0.85;;;;;;;;;;8376720;27;20178;-59
2022/06/02 21:35:41;;;;;;;1.50;0.70;;;;;;;;;;8378980;28;20016;-60
2022/06/02 21:39:45;;;;;;;1.37;1.00;;;;;;;;;;8379638;28;20689;-58
2022/06/02 21:43:51;;;;;;;0.70;0.70;;;;;;;;;;8378593;28;20396;-59
2022/06/02 21:47:54;;;;;;;1.13;0.90;;;;;;;;;;8379240;28;20214;-59
2022/06/02 21:51:54;;;;;;;1.47;0.80;;;;;;;;;;8379151;28;20089;-59
2022/06/02 21:55:54;;;;;;;0.70;0.70;;;;;;;;;;8380013;28;20028;-59
2022/06/02 21:59:54;;;;;;;1.00;0.90;;;;;;;;;;8378508;28;20279;-60
2022/06/02 22:03:57;;;;;;;0.80;0.80;;;;;;;;;;8380672;28;20097;-59
2022/06/02 22:08:03;;;;;;;0.87;0.87;;;;;;;;;;8380834;28;20016;-59
2022/06/02 22:12:20;;;;;;;0.85;0.85;;;;;;;;;;8381871;28;20121;-59
2022/06/02 22:16:42;;;;;;;1.00;0.80;;;;;;;;;;8378965;28;20051;-59
2022/06/02 22:20:56;;;;;;;0.80;0.80;;;;;;;;;;8357992;28;20071;-59
2022/06/02 22:25:11;;;;;;;0.80;0.80;;;;;;;;;;8380131;28;20059;-60
2022/06/02 22:29:11;;;;;;;0.80;0.80;;;;;;;;;;8382954;28;20051;-60
2022/06/02 22:33:24;;;;;;;2.22;0.90;;;;;;;;;;8366930;28;20036;-59
2022/06/02 22:37:27;;;;;;;0.80;0.80;;;;;;;;;;8359381;28;20090;-60
2022/06/02 22:41:38;;;;;;;1.33;0.90;;;;;;;;;;8359095;28;20035;-60
2022/06/02 22:45:41;;;;;;;2.13;0.90;;;;;;;;;;8357892;28;20673;-59
2022/06/02 22:49:51;;;;;;;0.70;0.70;;;;;;;;;;8357519;28;20968;-60
2022/06/02 22:54:10;;;;;;;0.77;0.73;;;;;;;;;;8355188;28;20025;-60
2022/06/02 22:58:28;;;;;;;0.70;0.70;;;;;;;;;;8356988;28;20035;-59
2022/06/02 23:02:28;;;;;;;0.90;0.90;;;;;;;;;;8357823;28;20052;-60
2022/06/02 23:06:37;;;;;;;1.00;0.80;;;;;;;;;;8358090;28;20032;-59
2022/06/02 23:11:16;;;;;;;0.80;0.80;;;;;;;;;;8356964;28;20029;-59
2022/06/02 23:15:16;;;;;;;0.90;0.90;;;;;;;;;;8258065;28;20101;-60
2022/06/02 23:19:35;;;;;;;0.80;0.80;;;;;;;;;;8304182;28;20025;-59
2022/06/02 23:23:35;;;;;;;2.00;0.80;;;;;;;;;;8353979;28;20031;-60
2022/06/02 23:27:35;;;;;;;1.10;0.90;;;;;;;;;;8355092;28;20013;-59
2022/06/02 23:31:38;;;;;;;0.90;0.70;;;;;;;;;;8353436;28;20148;-59
2022/06/02 23:35:47;;;;;;;1.05;0.90;;;;;;;;;;8358414;28;20511;-59
2022/06/02 23:39:50;;;;;;;0.90;0.90;;;;;;;;;;8356022;28;20361;-60
2022/06/02 23:44:15;;;;;;;0.87;0.87;;;;;;;;;;8355762;28;20602;-59
2022/06/02 23:48:18;;;;;;;1.52;0.90;;;;;;;;;;8357338;28;20032;-59
2022/06/02 23:52:27;;;;;;;0.95;0.95;;;;;;;;;;8354469;28;20893;-59
2022/06/02 23:56:46;;;;;;;1.98;0.80;;;;;;;;;;8356758;28;20035;-60
